Rexville, New York
Current Conditions -  °F | °C
As of 11:34 PM on Tuesday 21 Oct 2014 (Local Time) from KELZ Reporting Station
Haze Haze  
Wind Chill: 45°   Ceiling: 200
Heat Index: 45°   Visibility: 0.75mi
Dew Point: 43°   Wind: 0mph
Humidity: 93%   Direction: NA
Pressure: 30.03"   Gusts: NA
Location:  42.08°N, 77.66°W
Report Text: KELZ 220334Z AUTO 00000KT 3/4SM BR VV002 07/06 A3003 RMK AO2 T00720061
Loading
Personal Weather Stations






























Interactive Weather Map
Tropical Storm Tracking
New forecast layout! Learn more

10-Day Weather Forecast

Advertisements
Track Severe Weather on mobile